Terminal Aerodrome Forecast
Issued by NWS

Home | Current Version | Previous Version | Text Only | Print | Product List | Glossary On
Versions: 1 2 3 4 5 6 7 8 9 10 11 12 13 14 15 16 17 18 19 20 21
000
FTUS44 KHGX 281724
TAFUTS
TAF
KUTS 281724Z 2818/2918 17011G19KT P6SM SKC
     FM290300 15014KT P6SM SCT030
     FM290600 16014KT P6SM SCT007 BKN015
     FM291500 16017G25KT P6SM BKN025=

USA.gov is the U.S. government's official web portal to all federal, state and local government web resources and services.